createdAt,value
2023-04-09T00:00:05.611Z,521.7
2023-04-09T00:01:07.454Z,521.4
2023-04-09T00:02:09.544Z,521.1
2023-04-09T00:03:11.913Z,521.3
2023-04-09T00:04:13.931Z,521.5
2023-04-09T00:05:15.994Z,520.9
2023-04-09T00:06:17.879Z,521.5
2023-04-09T00:07:19.682Z,521.1
2023-04-09T00:08:21.522Z,521.2
2023-04-09T00:09:23.389Z,521.2
2023-04-09T00:10:25.324Z,520.9
2023-04-09T00:11:27.184Z,521
2023-04-09T00:12:29.035Z,520.8
2023-04-09T00:13:40.524Z,521
2023-04-09T00:14:42.348Z,521
2023-04-09T00:15:44.287Z,520.9
2023-04-09T00:16:46.579Z,521
2023-04-09T00:17:48.711Z,520.8
2023-04-09T00:18:51.751Z,520.8
2023-04-09T00:19:53.747Z,520.8
2023-04-09T00:20:55.630Z,520.8
2023-04-09T00:21:57.458Z,521.3
2023-04-09T00:22:59.309Z,520.8
2023-04-09T00:24:01.154Z,521.3
2023-04-09T00:25:03.108Z,520.7
2023-04-09T00:26:05.054Z,520.6
2023-04-09T00:27:06.808Z,520.4
2023-04-09T00:28:08.651Z,520.8
2023-04-09T00:29:10.504Z,520.8
2023-04-09T00:30:12.362Z,520.9
2023-04-09T00:31:14.458Z,520.2
2023-04-09T00:32:16.283Z,520.5
2023-04-09T00:33:18.128Z,520.6
2023-04-09T00:34:19.968Z,520.7
2023-04-09T00:35:21.816Z,520.7
2023-04-09T00:36:27.584Z,520.4
2023-04-09T00:37:29.715Z,520.7
2023-04-09T00:38:31.555Z,520.7
2023-04-09T00:39:33.409Z,520.8
2023-04-09T00:40:35.202Z,520.6
2023-04-09T00:41:37.113Z,520.5
2023-04-09T00:42:38.965Z,520.5
2023-04-09T00:43:40.803Z,520.4
2023-04-09T00:44:42.765Z,520.7
2023-04-09T00:45:44.829Z,520.9
2023-04-09T00:46:46.673Z,521.1
2023-04-09T00:47:48.754Z,521
2023-04-09T00:48:52.346Z,521.3
2023-04-09T00:49:54.272Z,521.7
2023-04-09T00:50:56.119Z,521.1
2023-04-09T00:51:57.988Z,521.3
2023-04-09T00:52:59.918Z,521.5
2023-04-09T00:54:01.869Z,521.3
2023-04-09T00:55:03.717Z,521
2023-04-09T00:56:05.571Z,520.9
2023-04-09T00:57:07.412Z,520.6
2023-04-09T00:58:09.164Z,520.9
2023-04-09T00:59:11.223Z,521.2
2023-04-09T01:00:13.093Z,521
2023-04-09T01:01:15.241Z,520.7
2023-04-09T01:02:17.516Z,520.7
2023-04-09T01:03:19.920Z,520.8
2023-04-09T01:04:21.745Z,521.3
2023-04-09T01:05:23.557Z,521.3
2023-04-09T01:06:25.507Z,521.2
2023-04-09T01:07:27.476Z,521.1
2023-04-09T01:08:29.309Z,520.8
2023-04-09T01:09:31.072Z,520.9
2023-04-09T01:10:32.907Z,520.2
2023-04-09T01:11:34.756Z,520.5
2023-04-09T01:12:36.632Z,520.2
2023-04-09T01:13:38.766Z,520
2023-04-09T01:14:40.711Z,519.8
2023-04-09T01:15:42.562Z,519.9
2023-04-09T01:16:44.714Z,520.2
2023-04-09T01:17:47.007Z,519.9
2023-04-09T01:18:48.854Z,520.2
2023-04-09T01:19:50.775Z,520.2
2023-04-09T01:20:52.636Z,520.3
2023-04-09T01:21:54.476Z,520.1
2023-04-09T01:22:56.351Z,520.4
2023-04-09T01:23:58.177Z,520.2
2023-04-09T01:25:00.159Z,520.2
2023-04-09T01:26:01.994Z,520.3
2023-04-09T01:27:03.839Z,520.1
2023-04-09T01:28:05.677Z,520.1
2023-04-09T01:29:07.535Z,520.1
2023-04-09T01:30:09.505Z,520.1
2023-04-09T01:31:11.458Z,520.1
2023-04-09T01:32:13.464Z,520.2
2023-04-09T01:33:15.445Z,520.2
2023-04-09T01:34:17.316Z,520
2023-04-09T01:35:19.241Z,519.9
2023-04-09T01:36:21.191Z,520.2
2023-04-09T01:37:23.047Z,519.9
2023-04-09T01:38:24.931Z,519.7
2023-04-09T01:39:26.684Z,519.8
2023-04-09T01:40:28.595Z,519.6
2023-04-09T01:41:30.444Z,519.7
2023-04-09T01:42:32.316Z,519.9
2023-04-09T01:43:34.146Z,519.8
2023-04-09T01:44:36.101Z,520.1
2023-04-09T01:45:37.851Z,520
2023-04-09T01:46:39.696Z,520
2023-04-09T01:47:41.685Z,520
2023-04-09T01:48:43.509Z,519.6
2023-04-09T01:49:45.356Z,519.8
2023-04-09T01:50:47.200Z,519.8
2023-04-09T01:51:49.153Z,519.9
2023-04-09T01:52:51.002Z,519.9
2023-04-09T01:53:52.879Z,519.9
2023-04-09T01:54:54.703Z,519.6
2023-04-09T01:55:56.458Z,519.7
2023-04-09T01:56:58.398Z,519.8
2023-04-09T01:58:00.258Z,519.8
2023-04-09T01:59:02.111Z,519.9
2023-04-09T02:00:03.966Z,519.9
2023-04-09T02:01:06.137Z,519.9
2023-04-09T02:02:08.451Z,520
2023-04-09T02:03:10.864Z,520.2
2023-04-09T02:04:12.786Z,520.2
2023-04-09T02:05:14.635Z,520.6
2023-04-09T02:06:16.485Z,520.3
2023-04-09T02:07:18.348Z,520.1
2023-04-09T02:08:20.194Z,520.1
2023-04-09T02:09:22.068Z,520.1
2023-04-09T02:10:23.898Z,519.9
2023-04-09T02:11:25.673Z,519.8
2023-04-09T02:12:27.588Z,520
2023-04-09T02:13:29.440Z,519.8
2023-04-09T02:14:31.295Z,519.5
2023-04-09T02:15:33.160Z,519.8
2023-04-09T02:16:34.985Z,519.7
2023-04-09T02:17:37.090Z,519.9
2023-04-09T02:18:38.993Z,520
2023-04-09T02:19:40.943Z,520.1
2023-04-09T02:20:42.797Z,519.8
2023-04-09T02:21:44.657Z,520.1
2023-04-09T02:22:46.422Z,519.7
2023-04-09T02:23:48.356Z,519.9
2023-04-09T02:24:50.329Z,520.1
2023-04-09T02:25:52.154Z,520.1
2023-04-09T02:26:54.111Z,520.3
2023-04-09T02:27:55.899Z,520.3
2023-04-09T02:28:57.700Z,520.1
2023-04-09T02:29:59.485Z,519.9
2023-04-09T02:31:01.520Z,520.1
2023-04-09T02:32:03.461Z,520.1
2023-04-09T02:33:05.316Z,520.2
2023-04-09T02:34:07.172Z,520.4
2023-04-09T02:35:08.932Z,520.5
2023-04-09T02:36:10.857Z,520.4
2023-04-09T02:37:12.710Z,520.3
2023-04-09T02:38:14.563Z,520.2
2023-04-09T02:39:16.410Z,520.2
2023-04-09T02:40:18.281Z,520.3
2023-04-09T02:41:20.205Z,520.3
2023-04-09T02:42:22.173Z,520.3
2023-04-09T02:43:24.016Z,520.7
2023-04-09T02:44:25.866Z,520.4
2023-04-09T02:45:27.719Z,520.5
2023-04-09T02:46:29.687Z,520.1
2023-04-09T02:47:31.734Z,520.5
2023-04-09T02:48:33.580Z,520.4
2023-04-09T02:49:35.417Z,520.4
2023-04-09T02:50:37.167Z,520.5
2023-04-09T02:51:39.022Z,520.9
2023-04-09T02:52:40.975Z,520.8
2023-04-09T02:53:42.754Z,521.2
2023-04-09T02:54:44.585Z,521
2023-04-09T02:55:46.450Z,521
2023-04-09T02:56:48.252Z,521.1
2023-04-09T02:57:50.229Z,521.3
2023-04-09T02:58:53.288Z,521.2
2023-04-09T02:59:55.261Z,521.3
2023-04-09T03:00:57.100Z,521.6
2023-04-09T03:01:59.503Z,521.6
2023-04-09T03:03:02.338Z,521.8
2023-04-09T03:04:04.989Z,521.3
2023-04-09T03:05:06.863Z,521
2023-04-09T03:06:08.816Z,521.3
2023-04-09T03:07:10.583Z,520.8
2023-04-09T03:08:12.342Z,521
2023-04-09T03:09:14.168Z,520.9
2023-04-09T03:10:16.105Z,521.1
2023-04-09T03:11:17.889Z,520.8
2023-04-09T03:12:19.815Z,521.2
2023-04-09T03:13:21.666Z,521.2
2023-04-09T03:14:23.426Z,520.9
2023-04-09T03:15:25.180Z,521.3
2023-04-09T03:16:27.338Z,520.9
2023-04-09T03:17:29.274Z,520.7
2023-04-09T03:18:30.999Z,520.5
2023-04-09T03:19:32.870Z,521
2023-04-09T03:20:34.724Z,520.9
2023-04-09T03:21:36.559Z,520.7
2023-04-09T03:22:38.429Z,520.8
2023-04-09T03:23:40.371Z,520.7
2023-04-09T03:24:42.416Z,521
2023-04-09T03:25:44.171Z,521
2023-04-09T03:26:46.144Z,521.1
2023-04-09T03:27:47.965Z,521.2
2023-04-09T03:28:50.179Z,521.3
2023-04-09T03:29:52.198Z,521.4
2023-04-09T03:30:54.061Z,521.4
2023-04-09T03:31:56.086Z,521
2023-04-09T03:32:58.179Z,520.9
2023-04-09T03:33:59.882Z,521
2023-04-09T03:35:01.756Z,520.9
2023-04-09T03:36:03.864Z,520.9
2023-04-09T03:37:05.860Z,521.1
2023-04-09T03:38:07.700Z,520.7
2023-04-09T03:39:09.553Z,520.9
2023-04-09T03:40:11.301Z,521.1
2023-04-09T03:41:13.144Z,521.3
2023-04-09T03:42:15.118Z,521.2
2023-04-09T03:43:17.068Z,520.8
2023-04-09T03:44:18.840Z,520.9
2023-04-09T03:45:20.655Z,520.6
2023-04-09T03:46:22.646Z,520.5
2023-04-09T03:47:24.715Z,520.5
2023-04-09T03:48:26.692Z,520.5
2023-04-09T03:49:28.578Z,520.5
2023-04-09T03:50:30.352Z,520.3
2023-04-09T03:51:32.269Z,520.5
2023-04-09T03:52:34.195Z,520.3
2023-04-09T03:53:36.069Z,520
2023-04-09T03:54:37.910Z,519.9
2023-04-09T03:55:39.903Z,519.9
2023-04-09T03:56:41.868Z,519.5
2023-04-09T03:57:43.804Z,519.7
2023-04-09T03:58:45.645Z,519.9
2023-04-09T03:59:47.411Z,519.9
2023-04-09T04:00:49.325Z,519.4
2023-04-09T04:01:51.612Z,520.1
2023-04-09T04:02:54.648Z,519.8
2023-04-09T04:03:57.256Z,519.8
2023-04-09T04:04:59.086Z,519.6
2023-04-09T04:06:00.924Z,519.5
2023-04-09T04:07:02.813Z,519.5
2023-04-09T04:08:04.622Z,519.2
2023-04-09T04:09:06.581Z,519.4
2023-04-09T04:10:08.334Z,519.3
2023-04-09T04:11:10.278Z,519.6
2023-04-09T04:12:12.241Z,519.7
2023-04-09T04:13:14.320Z,519.7
2023-04-09T04:14:16.231Z,519.8
2023-04-09T04:15:17.988Z,519.6
2023-04-09T04:16:20.064Z,519.6
2023-04-09T04:17:22.023Z,519.8
2023-04-09T04:18:23.837Z,519.5
2023-04-09T04:19:25.568Z,519.4
2023-04-09T04:20:27.449Z,519.4
2023-04-09T04:21:29.388Z,519.4
2023-04-09T04:22:31.250Z,519.4
2023-04-09T04:23:33.205Z,519.5
2023-04-09T04:24:35.052Z,519.6
2023-04-09T04:25:36.899Z,519.5
2023-04-09T04:26:38.744Z,519.6
2023-04-09T04:27:40.703Z,519.3
2023-04-09T04:28:42.589Z,518.9
2023-04-09T04:29:44.334Z,518.8
2023-04-09T04:30:46.259Z,518.9
2023-04-09T04:31:48.346Z,518.8
2023-04-09T04:32:50.262Z,518.5
2023-04-09T04:33:52.000Z,518.3
2023-04-09T04:34:53.851Z,518.5
2023-04-09T04:35:55.713Z,518.6
2023-04-09T04:36:57.652Z,518.6
2023-04-09T04:37:59.524Z,518.8
2023-04-09T04:39:01.362Z,518.6
2023-04-09T04:40:03.208Z,518.5
2023-04-09T04:41:05.063Z,519
2023-04-09T04:42:06.916Z,518.9
2023-04-09T04:43:08.860Z,518.7
2023-04-09T04:44:10.737Z,518.9
2023-04-09T04:45:12.667Z,519
2023-04-09T04:46:14.839Z,518.6
2023-04-09T04:47:16.783Z,518.5
2023-04-09T04:48:18.660Z,518.7
2023-04-09T04:49:20.482Z,518.5
2023-04-09T04:50:22.328Z,518.5
2023-04-09T04:51:24.165Z,518.7
2023-04-09T04:52:25.988Z,518.6
2023-04-09T04:53:27.868Z,518.5
2023-04-09T04:54:29.713Z,518.3
2023-04-09T04:55:31.578Z,518.4
2023-04-09T04:56:33.531Z,518.1
2023-04-09T04:57:35.387Z,517.9
2023-04-09T04:58:37.157Z,517.9
2023-04-09T04:59:39.094Z,518.5
2023-04-09T05:00:41.023Z,518.4
2023-04-09T05:01:43.663Z,518.2
2023-04-09T05:02:46.287Z,517.8
2023-04-09T05:03:49.122Z,517.9
2023-04-09T05:04:51.186Z,518
2023-04-09T05:05:53.142Z,517.8
2023-04-09T05:06:55.006Z,517.6
2023-04-09T05:07:56.852Z,517.7
2023-04-09T05:08:58.687Z,517.5
2023-04-09T05:10:00.663Z,517.4
2023-04-09T05:11:02.606Z,517.8
2023-04-09T05:12:04.452Z,517.6
2023-04-09T05:13:06.293Z,518.1
2023-04-09T05:14:08.163Z,518
2023-04-09T05:15:10.134Z,518
2023-04-09T05:16:12.260Z,517.9
2023-04-09T05:17:14.205Z,518.1
2023-04-09T05:18:16.290Z,517.7
2023-04-09T05:19:18.222Z,517.9
2023-04-09T05:20:20.064Z,517.7
2023-04-09T05:21:21.920Z,517.8
2023-04-09T05:22:23.768Z,517.8
2023-04-09T05:23:25.624Z,517.8
2023-04-09T05:24:27.574Z,517.4
2023-04-09T05:25:29.425Z,517.3
2023-04-09T05:26:31.159Z,517.5
2023-04-09T05:27:32.931Z,517.4
2023-04-09T05:28:34.766Z,517.5
2023-04-09T05:29:36.710Z,517.4
2023-04-09T05:30:38.691Z,517.4
2023-04-09T05:31:40.551Z,517.1
2023-04-09T05:32:42.588Z,517.3
2023-04-09T05:33:44.317Z,517.3
2023-04-09T05:34:46.352Z,517.7
2023-04-09T05:35:48.349Z,517.5
2023-04-09T05:36:50.101Z,517.2
2023-04-09T05:37:51.921Z,517.8
2023-04-09T05:38:55.048Z,517.8
2023-04-09T05:39:57.141Z,517.6
2023-04-09T05:40:59.115Z,517.6
2023-04-09T05:42:01.112Z,517.7
2023-04-09T05:43:03.026Z,517.8
2023-04-09T05:44:04.776Z,517.8
2023-04-09T05:45:06.721Z,517.6
2023-04-09T05:46:08.871Z,517.3
2023-04-09T05:47:10.837Z,517.6
2023-04-09T05:48:12.690Z,517
2023-04-09T05:49:14.539Z,517.1
2023-04-09T05:50:16.387Z,517.2
2023-04-09T05:51:18.240Z,517.4
2023-04-09T05:52:20.088Z,517.7
2023-04-09T05:53:21.938Z,517.6
2023-04-09T05:54:23.780Z,517.5
2023-04-09T05:55:25.611Z,517.6
2023-04-09T05:56:27.347Z,517.6
2023-04-09T05:57:29.199Z,517.5
2023-04-09T05:58:30.998Z,517.4
2023-04-09T05:59:32.838Z,517.3
2023-04-09T06:00:34.680Z,517.2
2023-04-09T06:01:36.791Z,517
2023-04-09T06:02:39.248Z,517.2
2023-04-09T06:03:41.683Z,517.2
2023-04-09T06:04:43.838Z,517.1
2023-04-09T06:05:45.676Z,517.2
2023-04-09T06:06:47.617Z,517.5
2023-04-09T06:07:49.474Z,517.3
2023-04-09T06:08:51.318Z,517.4
2023-04-09T06:09:53.183Z,517.2
2023-04-09T06:10:55.026Z,517.2
2023-04-09T06:11:56.977Z,517
2023-04-09T06:12:58.922Z,517.1
2023-04-09T06:14:00.772Z,517.1
2023-04-09T06:15:02.733Z,517.2
2023-04-09T06:16:04.802Z,517.3
2023-04-09T06:17:07.068Z,517.5
2023-04-09T06:18:09.316Z,517.4
2023-04-09T06:19:11.268Z,517.3
2023-04-09T06:20:13.003Z,517.4
2023-04-09T06:21:14.792Z,517.2
2023-04-09T06:22:16.604Z,517.1
2023-04-09T06:23:18.546Z,517.1
2023-04-09T06:24:20.229Z,517.3
2023-04-09T06:25:22.044Z,517
2023-04-09T06:26:23.797Z,517.1
2023-04-09T06:27:25.583Z,517.2
2023-04-09T06:28:27.495Z,517.2
2023-04-09T06:29:29.452Z,517.4
2023-04-09T06:30:31.297Z,517.1
2023-04-09T06:31:33.176Z,517.4
2023-04-09T06:32:56.110Z,517.1
2023-04-09T06:33:57.947Z,517.1
2023-04-09T06:34:59.900Z,517.2
2023-04-09T06:36:01.965Z,516.9
2023-04-09T06:37:03.810Z,517.1
2023-04-09T06:38:05.546Z,516.8
2023-04-09T06:39:07.291Z,517
2023-04-09T06:40:09.344Z,517.4
2023-04-09T06:41:11.205Z,516.9
2023-04-09T06:42:12.944Z,516.7
2023-04-09T06:43:14.804Z,516.8
2023-04-09T06:44:16.744Z,516.7
2023-04-09T06:45:18.600Z,516.8
2023-04-09T06:46:20.972Z,516.4
2023-04-09T06:47:22.812Z,516.7
2023-04-09T06:48:24.796Z,516.3
2023-04-09T06:49:26.490Z,516.5
2023-04-09T06:50:28.275Z,516
2023-04-09T06:51:30.113Z,516.5
2023-04-09T06:52:31.886Z,516.4
2023-04-09T06:53:33.828Z,516.1
2023-04-09T06:54:35.769Z,515.9
2023-04-09T06:55:37.609Z,516.1
2023-04-09T06:56:39.331Z,516
2023-04-09T06:57:41.106Z,515.5
2023-04-09T06:58:42.860Z,515.7
2023-04-09T06:59:44.700Z,516
2023-04-09T07:00:46.460Z,515.5
2023-04-09T07:01:48.822Z,515.4
2023-04-09T07:02:51.992Z,515.5
2023-04-09T07:03:55.397Z,515.5
2023-04-09T07:04:57.442Z,515.1
2023-04-09T07:05:59.308Z,515.2
2023-04-09T07:07:01.247Z,515.3
2023-04-09T07:08:03.098Z,515.4
2023-04-09T07:09:04.838Z,515.2
2023-04-09T07:10:06.895Z,515.5
2023-04-09T07:11:08.902Z,515.3
2023-04-09T07:12:10.794Z,515.2
2023-04-09T07:13:12.641Z,514.5
2023-04-09T07:14:14.626Z,515.1
2023-04-09T07:15:16.855Z,514.9
2023-04-09T07:16:19.050Z,514.8
2023-04-09T07:17:20.896Z,514.5
2023-04-09T07:18:22.722Z,514.8
2023-04-09T07:19:24.600Z,514.6
2023-04-09T07:20:26.802Z,514.8
2023-04-09T07:21:28.669Z,514.7
2023-04-09T07:22:30.639Z,514.7
2023-04-09T07:23:32.575Z,514.5
2023-04-09T07:24:34.424Z,514.7
2023-04-09T07:25:36.282Z,514.5
2023-04-09T07:26:38.128Z,514.2
2023-04-09T07:27:39.933Z,514.4
2023-04-09T07:28:41.831Z,514.3
2023-04-09T07:29:43.692Z,514.3
2023-04-09T07:30:45.535Z,514.3
2023-04-09T07:31:47.501Z,514.5
2023-04-09T07:32:49.344Z,514.1
2023-04-09T07:33:52.879Z,514.4
2023-04-09T07:34:55.011Z,514.2
2023-04-09T07:35:57.040Z,514.1
2023-04-09T07:36:58.987Z,513.9
2023-04-09T07:38:01.035Z,514.2
2023-04-09T07:39:03.291Z,514.2
2023-04-09T07:40:05.349Z,513.8
2023-04-09T07:41:07.207Z,513.9
2023-04-09T07:42:09.058Z,513.7
2023-04-09T07:43:10.907Z,513.7
2023-04-09T07:44:12.853Z,513.7
2023-04-09T07:45:14.706Z,513.4
2023-04-09T07:46:16.674Z,513.5
2023-04-09T07:47:18.519Z,513.8
2023-04-09T07:48:20.364Z,513.6
2023-04-09T07:49:22.412Z,513.8
2023-04-09T07:50:24.423Z,513.7
2023-04-09T07:51:26.212Z,513.5
2023-04-09T07:52:28.325Z,513.5
2023-04-09T07:53:30.125Z,513.5
2023-04-09T07:54:32.080Z,513.4
2023-04-09T07:55:33.857Z,513.1
2023-04-09T07:56:35.700Z,513.1
2023-04-09T07:57:37.633Z,513.2
2023-04-09T07:58:39.483Z,512.8
2023-04-09T07:59:41.336Z,513
2023-04-09T08:00:43.289Z,512.8
2023-04-09T08:01:45.367Z,512.8
2023-04-09T08:02:48.236Z,512.6
2023-04-09T08:03:51.042Z,512.6
2023-04-09T08:04:53.517Z,512.5
2023-04-09T08:05:55.426Z,512.4
2023-04-09T08:06:57.360Z,512.2
2023-04-09T08:07:59.305Z,512.5
2023-04-09T08:09:01.122Z,512
2023-04-09T08:10:02.938Z,512.1
2023-04-09T08:11:04.744Z,512.2
2023-04-09T08:12:06.711Z,511.8
2023-04-09T08:13:12.344Z,511.8
2023-04-09T08:14:14.196Z,511.8
2023-04-09T08:15:16.046Z,511.6
2023-04-09T08:16:18.203Z,511.6
2023-04-09T08:17:19.956Z,511.6
2023-04-09T08:18:21.687Z,512
2023-04-09T08:19:23.444Z,511.8
2023-04-09T08:20:25.412Z,511.3
2023-04-09T08:21:27.370Z,511.5
2023-04-09T08:22:29.292Z,511.4
2023-04-09T08:23:31.071Z,511
2023-04-09T08:24:32.905Z,511.4
2023-04-09T08:25:34.740Z,511.2
2023-04-09T08:26:36.624Z,510.8
2023-04-09T08:27:38.441Z,510.8
2023-04-09T08:28:40.301Z,510.9
2023-04-09T08:29:42.253Z,511
2023-04-09T08:30:44.152Z,511.2
2023-04-09T08:31:46.414Z,511
2023-04-09T08:32:48.490Z,511.3
2023-04-09T08:33:50.368Z,511.2
2023-04-09T08:34:52.310Z,511.1
2023-04-09T08:35:54.160Z,511.3
2023-04-09T08:36:56.135Z,511.3
2023-04-09T08:37:58.078Z,511.6
2023-04-09T08:39:00.020Z,511.8
2023-04-09T08:40:01.983Z,511.2
2023-04-09T08:41:03.825Z,511.4
2023-04-09T08:42:05.887Z,511.5
2023-04-09T08:43:07.726Z,511.6
2023-04-09T08:44:09.472Z,511.8
2023-04-09T08:45:11.225Z,511.6
2023-04-09T08:46:13.086Z,512.5
2023-04-09T08:47:15.133Z,512.2
2023-04-09T08:48:17.338Z,512.2
2023-04-09T08:49:19.234Z,512.3
2023-04-09T08:50:21.548Z,512.4
2023-04-09T08:51:23.869Z,512.5
2023-04-09T08:52:26.161Z,512.5
2023-04-09T08:53:27.971Z,512.6
2023-04-09T08:54:29.950Z,512.6
2023-04-09T08:55:31.875Z,512.7
2023-04-09T08:56:33.725Z,512.7
2023-04-09T08:57:35.574Z,512.8
2023-04-09T08:58:37.432Z,512.7
2023-04-09T08:59:39.378Z,512.8
2023-04-09T09:00:41.121Z,513.1
2023-04-09T09:01:43.585Z,512.7
2023-04-09T09:02:45.887Z,512.9
2023-04-09T09:03:48.159Z,513.1
2023-04-09T09:04:50.291Z,513.4
2023-04-09T09:05:52.117Z,513.2
2023-04-09T09:06:57.245Z,513.3
2023-04-09T09:07:59.117Z,513.7
2023-04-09T09:09:00.937Z,513.8
2023-04-09T09:10:02.892Z,513.6
2023-04-09T09:11:04.647Z,513.6
2023-04-09T09:12:06.600Z,514.1
2023-04-09T09:13:08.447Z,514
2023-04-09T09:14:10.497Z,514.3
2023-04-09T09:15:12.360Z,514.2
2023-04-09T09:16:14.289Z,514.3
2023-04-09T09:17:16.460Z,514.2
2023-04-09T09:18:18.320Z,514.3
2023-04-09T09:19:20.163Z,514.3
2023-04-09T09:20:22.006Z,514.2
2023-04-09T09:21:23.962Z,514.4
2023-04-09T09:22:26.033Z,514.5
2023-04-09T09:23:27.883Z,514.5
2023-04-09T09:24:29.718Z,514.6
2023-04-09T09:25:31.577Z,514.8
2023-04-09T09:26:33.420Z,515.1
2023-04-09T09:27:35.366Z,515.3
2023-04-09T09:28:37.214Z,515.1
2023-04-09T09:29:39.166Z,515.1
2023-04-09T09:30:41.243Z,515.1
2023-04-09T09:31:43.090Z,515.3
2023-04-09T09:32:45.050Z,515.7
2023-04-09T09:33:46.991Z,515.7
2023-04-09T09:34:48.764Z,515.3
2023-04-09T09:35:51.126Z,515.9
2023-04-09T09:36:53.376Z,515.8
2023-04-09T09:37:55.308Z,515.7
2023-04-09T09:38:57.260Z,515.5
2023-04-09T09:39:59.119Z,515.7
2023-04-09T09:41:01.070Z,516
2023-04-09T09:42:02.917Z,515.7
2023-04-09T09:43:04.765Z,516.2
2023-04-09T09:44:06.812Z,516.4
2023-04-09T09:45:08.558Z,516.3
2023-04-09T09:46:10.747Z,516.4
2023-04-09T09:47:12.573Z,516.7
2023-04-09T09:48:14.421Z,516.5
2023-04-09T09:49:16.273Z,516.5
2023-04-09T09:50:18.438Z,516.8
2023-04-09T09:51:20.272Z,516.9
2023-04-09T09:52:22.334Z,517.1
2023-04-09T09:53:24.179Z,517.2
2023-04-09T09:54:26.169Z,517.2
2023-04-09T09:55:28.289Z,517.4
2023-04-09T09:56:30.051Z,517.6
2023-04-09T09:57:32.001Z,517.7
2023-04-09T09:58:33.842Z,517.7
2023-04-09T09:59:35.588Z,517.6
2023-04-09T10:00:37.441Z,517.5
2023-04-09T10:01:39.735Z,517.9
2023-04-09T10:02:41.919Z,517.7
2023-04-09T10:03:43.815Z,518
2023-04-09T10:04:46.029Z,518
2023-04-09T10:05:47.952Z,518
2023-04-09T10:06:53.871Z,518.1
2023-04-09T10:07:55.713Z,518.2
2023-04-09T10:08:57.468Z,518.4
2023-04-09T10:09:59.438Z,518.7
2023-04-09T10:11:01.270Z,518.5
2023-04-09T10:12:03.112Z,518.7
2023-04-09T10:13:04.967Z,519
2023-04-09T10:14:06.884Z,518.9
2023-04-09T10:15:08.772Z,519.4
2023-04-09T10:16:10.850Z,519.1
2023-04-09T10:17:12.672Z,519.7
2023-04-09T10:18:14.520Z,519.8
2023-04-09T10:19:16.375Z,519.6
2023-04-09T10:20:18.321Z,519.9
2023-04-09T10:21:20.106Z,519.6
2023-04-09T10:22:22.024Z,520
2023-04-09T10:23:23.806Z,519.8
2023-04-09T10:24:25.623Z,520.1
2023-04-09T10:25:27.497Z,520
2023-04-09T10:26:29.320Z,519.9
2023-04-09T10:27:31.285Z,520
2023-04-09T10:28:33.239Z,519.7
2023-04-09T10:29:35.178Z,519.8
2023-04-09T10:30:37.142Z,519.8
2023-04-09T10:31:39.229Z,519.9
2023-04-09T10:32:41.343Z,520
2023-04-09T10:33:43.189Z,519.8
2023-04-09T10:34:44.960Z,520.2
2023-04-09T10:35:46.920Z,520.5
2023-04-09T10:36:48.845Z,520.5
2023-04-09T10:37:50.807Z,520.6
2023-04-09T10:38:53.619Z,521.1
2023-04-09T10:39:55.623Z,520.8
2023-04-09T10:40:57.508Z,521.1
2023-04-09T10:41:59.551Z,521.3
2023-04-09T10:43:01.586Z,521.3
2023-04-09T10:44:03.442Z,521.4
2023-04-09T10:45:05.312Z,521.5
2023-04-09T10:46:07.258Z,521.7
2023-04-09T10:47:08.988Z,521.8
2023-04-09T10:48:10.918Z,521.7
2023-04-09T10:49:12.870Z,521.8
2023-04-09T10:50:14.849Z,521.8
2023-04-09T10:51:16.692Z,522
2023-04-09T10:52:18.900Z,522.5
2023-04-09T10:53:20.808Z,522.6
2023-04-09T10:54:22.755Z,522.8
2023-04-09T10:55:24.618Z,522.8
2023-04-09T10:56:26.492Z,523
2023-04-09T10:57:28.418Z,523.1
2023-04-09T10:58:30.269Z,523.4
2023-04-09T10:59:32.114Z,523.2
2023-04-09T11:00:33.852Z,522.9
2023-04-09T11:01:36.054Z,523.4
2023-04-09T11:02:39.426Z,523.4
2023-04-09T11:03:41.714Z,523.3
2023-04-09T11:04:43.848Z,523.7
2023-04-09T11:05:45.664Z,524
2023-04-09T11:06:47.546Z,523.9
2023-04-09T11:07:49.374Z,523.9
2023-04-09T11:08:52.240Z,524
2023-04-09T11:09:54.103Z,523.9
2023-04-09T11:10:55.935Z,524.1
2023-04-09T11:11:57.816Z,524.2
2023-04-09T11:12:59.635Z,524.4
2023-04-09T11:14:01.608Z,524.6
2023-04-09T11:15:03.552Z,524.4
2023-04-09T11:16:05.673Z,524.4
2023-04-09T11:17:07.564Z,524.8
2023-04-09T11:18:09.407Z,525
2023-04-09T11:19:11.362Z,524.9
2023-04-09T11:20:13.203Z,525.2
2023-04-09T11:21:15.059Z,525.1
2023-04-09T11:22:16.917Z,524.6
2023-04-09T11:23:18.745Z,524.8
2023-04-09T11:24:20.595Z,525.3
2023-04-09T11:25:22.459Z,525
2023-04-09T11:26:24.297Z,524.9
2023-04-09T11:27:26.188Z,525.1
2023-04-09T11:28:28.114Z,524.8
2023-04-09T11:29:29.960Z,524.8
2023-04-09T11:30:31.815Z,525.7
2023-04-09T11:31:33.895Z,525.7
2023-04-09T11:32:35.922Z,525.5
2023-04-09T11:33:37.873Z,525.6
2023-04-09T11:34:39.724Z,526.2
2023-04-09T11:35:41.715Z,526.1
2023-04-09T11:36:43.721Z,526.4
2023-04-09T11:37:45.671Z,526.3
2023-04-09T11:38:47.426Z,526.4
2023-04-09T11:39:49.278Z,526.2
2023-04-09T11:40:51.117Z,526.1
2023-04-09T11:41:52.978Z,526.7
2023-04-09T11:42:54.848Z,526.4
2023-04-09T11:43:56.678Z,526.4
2023-04-09T11:44:58.535Z,526.2
2023-04-09T11:46:00.376Z,526.3
2023-04-09T11:47:02.464Z,526.5
2023-04-09T11:48:04.715Z,526.5
2023-04-09T11:49:06.545Z,526.4
2023-04-09T11:50:08.496Z,526.5
2023-04-09T11:51:10.252Z,526.6
2023-04-09T11:52:12.153Z,526.3
2023-04-09T11:53:13.874Z,526.4
2023-04-09T11:54:15.686Z,526.7
2023-04-09T11:55:17.543Z,526.7
2023-04-09T11:56:19.382Z,527.3
2023-04-09T11:57:21.242Z,527.1
2023-04-09T11:58:23.224Z,527.3
2023-04-09T11:59:25.045Z,527.7
2023-04-09T12:00:26.897Z,527.7
2023-04-09T12:01:28.746Z,527.2
2023-04-09T12:02:31.202Z,527.9
2023-04-09T12:03:34.997Z,527.7
2023-04-09T12:04:37.398Z,527.5
2023-04-09T12:05:51.105Z,527.9
2023-04-09T12:06:53.141Z,527.8
2023-04-09T12:07:57.349Z,527.5
2023-04-09T12:08:59.221Z,527.6
2023-04-09T12:10:01.049Z,527.6
2023-04-09T12:11:03.020Z,527.6
2023-04-09T12:12:04.956Z,528
2023-04-09T12:13:06.831Z,527.7
2023-04-09T12:14:08.686Z,527.7
2023-04-09T12:15:10.513Z,527.9
2023-04-09T12:16:12.646Z,528.2
2023-04-09T12:17:14.520Z,528.3
2023-04-09T12:18:16.510Z,528.3
2023-04-09T12:19:18.316Z,528.5
2023-04-09T12:20:20.171Z,528.4
2023-04-09T12:21:22.020Z,528.8
2023-04-09T12:22:23.872Z,528.6
2023-04-09T12:23:25.723Z,528.2
2023-04-09T12:24:27.567Z,528.3
2023-04-09T12:25:29.429Z,528.5
2023-04-09T12:26:31.271Z,528.4
2023-04-09T12:27:34.656Z,528.1
2023-04-09T12:28:36.415Z,528.3
2023-04-09T12:29:38.379Z,528.4
2023-04-09T12:30:40.204Z,528.7
2023-04-09T12:31:42.388Z,528.6
2023-04-09T12:32:44.329Z,528.6
2023-04-09T12:33:46.261Z,529
2023-04-09T12:34:48.220Z,529.1
2023-04-09T12:35:50.216Z,529.1
2023-04-09T12:36:52.126Z,529.2
2023-04-09T12:37:53.977Z,529.2
2023-04-09T12:38:55.856Z,529.4
2023-04-09T12:39:57.768Z,529.6
2023-04-09T12:40:59.622Z,530
2023-04-09T12:42:01.575Z,529.5
2023-04-09T12:43:03.435Z,529.6
2023-04-09T12:44:05.486Z,529.5
2023-04-09T12:45:07.356Z,529.7
2023-04-09T12:46:09.401Z,529.3
2023-04-09T12:47:11.338Z,529.4
2023-04-09T12:48:13.113Z,529.4
2023-04-09T12:49:14.861Z,529.6
2023-04-09T12:50:16.768Z,529.6
2023-04-09T12:51:18.642Z,529.7
2023-04-09T12:52:20.379Z,529.6
2023-04-09T12:53:22.025Z,530.1
2023-04-09T12:54:23.978Z,529.8
2023-04-09T12:55:25.833Z,529.4
2023-04-09T12:56:30.342Z,529.4
2023-04-09T12:57:32.290Z,529.5
2023-04-09T12:58:34.142Z,529.7
2023-04-09T12:59:35.940Z,530.2
2023-04-09T13:00:37.764Z,529.9
2023-04-09T13:01:44.028Z,530.2
2023-04-09T13:02:46.597Z,530
2023-04-09T13:03:49.319Z,530.5
2023-04-09T13:04:51.287Z,530.6
2023-04-09T13:05:53.250Z,530.2
2023-04-09T13:06:55.120Z,530.2
2023-04-09T13:07:57.041Z,530.6
2023-04-09T13:08:58.895Z,530.7
2023-04-09T13:10:00.740Z,530.5
2023-04-09T13:11:02.704Z,531
2023-04-09T13:12:04.465Z,530.9
2023-04-09T13:13:06.397Z,530.8
2023-04-09T13:14:08.151Z,530.9
2023-04-09T13:15:09.994Z,530.8
2023-04-09T13:16:11.978Z,530.9
2023-04-09T13:17:14.347Z,530.7
2023-04-09T13:18:16.257Z,531.1
2023-04-09T13:19:18.014Z,531
2023-04-09T13:20:19.944Z,530.7
2023-04-09T13:21:21.829Z,531
2023-04-09T13:22:23.667Z,530.9
2023-04-09T13:23:25.545Z,530.7